Terminal Aerodrome Forecast
Issued by NWS Paducah, KY

Home | Current Version | Previous Version | Text Only | Print | Product List | Glossary Off
Versions: 1 2 3 4 5 6 7 8 9 10 11 12 13 14 15 16 17 18

000
FTUS43 KPAH 261141
TAFPAH
TAF
KPAH 261141Z 2612/2712 VRB03KT 4SM BR FEW060 BKN250
     FM261400 09004KT P6SM SCT060 BKN250
     FM270100 VRB03KT P6SM SCT050 BKN200
     FM270900 00000KT 4SM BR BKN200=

USA.gov is the U.S. government's official web portal to all federal, state and local government web resources and services.